KMGC/MGC METAR and TAF weather

Enter ICAO airport designator
Station Type Date Time Source
KMGC METAR 2021/08/04 20:15 UTC NOAA

KMGC 042015Z AUTO 36007KT 10SM CLR 27/12 A3012 RMK AO2


Station Type Date Time Source
KMGC Decoded METAR 2021/08/04 20:15 UTC NOAA

Station name not available
Aug 04, 2021 - 04:15 PM EDT / 2021.08.04 2015 UTC
Wind: from the N (360 degrees) at 8 MPH (7 KT):0
Visibility: 10 mile(s):0
Sky conditions: clear
Temperature: 80 F (27 C)
Dew Point: 53 F (12 C)
Relative Humidity: 39%
Pressure (altimeter): 30.12 in. Hg (1019 hPa)
ob: KMGC 042015Z AUTO 36007KT 10SM CLR 27/12 A3012 RMK AO2
cycle: 20

Station Type Date Time Source
KMGC TAF UTC NOAA

Error!

Example: see airport list